createdAt,value
2023-08-16T00:01:43.832Z,10.67
2023-08-16T00:04:10.969Z,11.10
2023-08-16T00:06:43.488Z,11.63
2023-08-16T00:09:10.378Z,10.70
2023-08-16T00:11:37.466Z,10.77
2023-08-16T00:14:04.781Z,12.07
2023-08-16T00:16:31.819Z,12.50
2023-08-16T00:18:58.792Z,12.13
2023-08-16T00:21:25.739Z,12.50
2023-08-16T00:23:52.618Z,12.10
2023-08-16T00:26:19.704Z,12.67
2023-08-16T00:28:47.926Z,13.17
2023-08-16T00:31:15.525Z,13.10
2023-08-16T00:33:42.499Z,12.97
2023-08-16T00:36:09.595Z,13.00
2023-08-16T00:38:36.749Z,12.80
2023-08-16T00:41:04.440Z,12.40
2023-08-16T00:43:31.364Z,12.83
2023-08-16T00:45:58.487Z,12.30
2023-08-16T00:48:25.708Z,13.00
2023-08-16T00:50:52.742Z,14.57
2023-08-16T00:53:20.370Z,14.90
2023-08-16T00:55:47.571Z,14.03
2023-08-16T00:58:15.816Z,14.53
2023-08-16T01:00:42.972Z,13.40
2023-08-16T01:03:10.398Z,15.13
2023-08-16T01:05:38.423Z,13.20
2023-08-16T01:08:05.951Z,14.37
2023-08-16T01:10:55.774Z,13.13
2023-08-16T01:13:30.027Z,13.87
2023-08-16T01:15:59.996Z,13.23
2023-08-16T01:18:29.065Z,20.23
2023-08-16T01:20:57.070Z,12.87
2023-08-16T01:23:42.376Z,13.63
2023-08-16T01:26:29.568Z,13.13
2023-08-16T01:28:58.232Z,15.40
2023-08-16T01:31:25.337Z,13.37
2023-08-16T01:33:52.915Z,14.60
2023-08-16T01:36:20.069Z,14.87
2023-08-16T01:38:47.530Z,14.47
2023-08-16T01:41:23.086Z,16.77
2023-08-16T01:43:51.176Z,14.33
2023-08-16T01:46:19.304Z,14.70
2023-08-16T01:48:48.069Z,14.27
2023-08-16T01:51:15.409Z,14.53
2023-08-16T01:53:43.473Z,15.07
2023-08-16T01:56:10.417Z,14.10
2023-08-16T01:58:37.381Z,14.83
2023-08-16T02:01:04.465Z,13.47
2023-08-16T02:03:33.559Z,15.93
2023-08-16T02:06:00.663Z,14.50
2023-08-16T02:08:27.584Z,13.93
2023-08-16T02:10:54.840Z,14.03
2023-08-16T02:13:21.923Z,14.97
2023-08-16T02:15:51.313Z,15.40
2023-08-16T02:18:19.394Z,14.23
2023-08-16T02:20:53.767Z,15.50
2023-08-16T02:23:20.743Z,17.87
2023-08-16T02:25:47.910Z,14.83
2023-08-16T02:28:14.875Z,15.87
2023-08-16T02:30:41.834Z,14.00
2023-08-16T02:33:09.146Z,15.27
2023-08-16T02:35:36.144Z,14.00
2023-08-16T02:38:04.167Z,13.60
2023-08-16T02:40:31.881Z,14.87
2023-08-16T02:42:58.772Z,15.30
2023-08-16T02:45:26.776Z,15.27
2023-08-16T02:47:56.654Z,14.73
2023-08-16T02:50:24.069Z,15.03
2023-08-16T02:52:51.086Z,17.07
2023-08-16T02:55:18.078Z,16.27
2023-08-16T02:57:45.145Z,15.27
2023-08-16T03:00:12.891Z,15.67
2023-08-16T03:02:39.936Z,16.87
2023-08-16T03:05:07.427Z,16.20
2023-08-16T03:07:35.319Z,17.13
2023-08-16T03:10:02.308Z,16.40
2023-08-16T03:12:29.428Z,15.87
2023-08-16T03:14:56.923Z,16.53
2023-08-16T03:17:24.165Z,16.97
2023-08-16T03:19:51.756Z,16.93
2023-08-16T03:22:18.787Z,16.87
2023-08-16T03:24:47.846Z,16.93
2023-08-16T03:27:15.093Z,16.50
2023-08-16T03:29:42.592Z,16.73
2023-08-16T03:32:09.705Z,15.90
2023-08-16T03:34:36.886Z,16.00
2023-08-16T03:37:04.382Z,16.13
2023-08-16T03:39:31.619Z,17.17
2023-08-16T03:42:01.077Z,16.43
2023-08-16T03:44:30.206Z,18.00
2023-08-16T03:46:58.547Z,16.20
2023-08-16T03:49:25.582Z,15.50
2023-08-16T03:51:52.550Z,19.70
2023-08-16T03:54:19.562Z,17.10
2023-08-16T03:56:46.572Z,21.00
2023-08-16T03:59:14.401Z,21.33
2023-08-16T04:01:41.387Z,18.20
2023-08-16T04:04:08.492Z,18.40
2023-08-16T04:06:35.457Z,18.93
2023-08-16T04:09:02.889Z,18.57
2023-08-16T04:11:30.048Z,20.17
2023-08-16T04:13:57.660Z,19.83
2023-08-16T04:16:24.797Z,19.17
2023-08-16T04:18:54.431Z,20.07
2023-08-16T04:21:22.855Z,17.60
2023-08-16T04:23:50.397Z,19.53
2023-08-16T04:26:17.806Z,19.23
2023-08-16T04:28:45.010Z,17.70
2023-08-16T04:31:13.600Z,18.07
2023-08-16T04:33:40.993Z,18.20
2023-08-16T04:36:08.416Z,18.07
2023-08-16T04:38:35.557Z,17.50
2023-08-16T04:41:02.592Z,16.83
2023-08-16T04:43:29.524Z,17.73
2023-08-16T04:45:56.717Z,16.67
2023-08-16T04:48:23.690Z,17.53
2023-08-16T04:50:51.490Z,18.17
2023-08-16T04:53:18.767Z,18.60
2023-08-16T04:55:45.863Z,18.93
2023-08-16T04:58:13.170Z,18.90
2023-08-16T05:00:46.918Z,21.67
2023-08-16T05:03:14.361Z,18.87
2023-08-16T05:05:41.591Z,18.73
2023-08-16T05:08:10.286Z,18.00
2023-08-16T05:10:38.489Z,17.30
2023-08-16T05:13:05.502Z,18.37
2023-08-16T05:15:32.550Z,17.83
2023-08-16T05:17:59.570Z,17.50
2023-08-16T05:20:26.670Z,16.50
2023-08-16T05:22:53.606Z,17.53
2023-08-16T05:25:20.525Z,17.00
2023-08-16T05:27:47.454Z,17.93
2023-08-16T05:30:14.500Z,16.60
2023-08-16T05:32:41.498Z,18.60
2023-08-16T05:35:08.706Z,17.53
2023-08-16T05:37:35.660Z,16.77
2023-08-16T05:40:02.737Z,18.97
2023-08-16T05:42:31.840Z,16.90
2023-08-16T05:44:58.828Z,15.73
2023-08-16T05:47:26.081Z,16.17
2023-08-16T05:49:53.432Z,15.93
2023-08-16T05:52:20.377Z,15.33
2023-08-16T05:54:47.337Z,16.10
2023-08-16T05:57:14.286Z,18.60
2023-08-16T05:59:41.537Z,15.13
2023-08-16T06:02:08.478Z,13.63
2023-08-16T06:04:36.261Z,16.23
2023-08-16T06:07:04.057Z,15.40
2023-08-16T06:09:32.104Z,14.60
2023-08-16T06:12:01.234Z,15.87
2023-08-16T06:14:28.618Z,15.80
2023-08-16T06:16:55.726Z,14.90
2023-08-16T06:19:22.649Z,15.83
2023-08-16T06:21:49.514Z,15.67
2023-08-16T06:24:16.564Z,16.40
2023-08-16T06:26:43.487Z,15.87
2023-08-16T06:29:10.461Z,15.53
2023-08-16T06:31:37.424Z,14.83
2023-08-16T06:34:04.518Z,14.33
2023-08-16T06:36:31.420Z,12.93
2023-08-16T06:38:58.479Z,13.60
2023-08-16T06:41:25.402Z,14.97
2023-08-16T06:43:52.364Z,13.43
2023-08-16T06:46:19.297Z,13.40
2023-08-16T06:48:49.111Z,13.40
2023-08-16T06:51:16.298Z,11.93
2023-08-16T06:53:45.500Z,12.70
2023-08-16T06:56:12.707Z,11.80
2023-08-16T06:58:39.684Z,11.90
2023-08-16T07:01:07.405Z,12.17
2023-08-16T07:03:34.502Z,11.47
2023-08-16T07:06:01.780Z,12.27
2023-08-16T07:08:29.392Z,12.93
2023-08-16T07:10:56.391Z,12.23
2023-08-16T07:13:23.436Z,12.00
2023-08-16T07:15:50.607Z,11.50
2023-08-16T07:18:17.605Z,11.77
2023-08-16T07:20:45.834Z,10.70
2023-08-16T07:23:12.733Z,11.63
2023-08-16T07:25:39.708Z,11.27
2023-08-16T07:28:07.717Z,11.33
2023-08-16T07:30:38.505Z,12.13
2023-08-16T07:33:06.418Z,11.90
2023-08-16T07:35:33.875Z,10.97
2023-08-16T07:38:02.992Z,9.80
2023-08-16T07:40:30.223Z,10.33
2023-08-16T07:42:57.097Z,10.60
2023-08-16T07:45:24.104Z,9.90
2023-08-16T07:47:51.233Z,11.17
2023-08-16T07:50:18.347Z,9.43
2023-08-16T07:52:46.636Z,10.30
2023-08-16T07:55:13.676Z,9.67
2023-08-16T07:57:40.633Z,8.63
2023-08-16T08:00:13.130Z,10.93
2023-08-16T08:02:55.227Z,10.20
2023-08-16T08:05:27.910Z,13.97
2023-08-16T08:07:55.234Z,9.80
2023-08-16T08:10:22.469Z,9.37
2023-08-16T08:12:49.684Z,9.97
2023-08-16T08:15:16.813Z,9.83
2023-08-16T08:17:43.872Z,9.03
2023-08-16T08:20:14.333Z,9.70
2023-08-16T08:22:41.922Z,9.93
2023-08-16T08:25:09.518Z,8.80
2023-08-16T08:27:37.451Z,9.27
2023-08-16T08:30:05.642Z,9.57
2023-08-16T08:32:32.829Z,9.70
2023-08-16T08:34:59.923Z,9.97
2023-08-16T08:37:26.848Z,9.50
2023-08-16T08:39:54.389Z,10.57
2023-08-16T08:42:23.659Z,9.77
2023-08-16T08:44:52.137Z,8.87
2023-08-16T08:47:20.099Z,9.10
2023-08-16T08:49:47.545Z,8.30
2023-08-16T08:52:16.426Z,8.70
2023-08-16T08:54:43.416Z,10.67
2023-08-16T08:57:11.939Z,9.07
2023-08-16T08:59:46.993Z,9.30
2023-08-16T09:02:14.199Z,9.97
2023-08-16T09:04:43.028Z,7.70
2023-08-16T09:07:13.153Z,8.20
2023-08-16T09:09:40.804Z,10.70
2023-08-16T09:12:08.382Z,8.13
2023-08-16T09:14:35.288Z,8.80
2023-08-16T09:17:02.291Z,7.93
2023-08-16T09:19:29.250Z,10.17
2023-08-16T09:21:57.507Z,7.43
2023-08-16T09:24:25.170Z,8.10
2023-08-16T09:26:53.499Z,8.90
2023-08-16T09:29:20.410Z,8.07
2023-08-16T09:31:48.107Z,7.03
2023-08-16T09:34:15.360Z,10.07
2023-08-16T09:36:48.781Z,7.30
2023-08-16T09:39:15.842Z,7.30
2023-08-16T09:41:50.894Z,7.85
2023-08-16T09:44:18.841Z,6.73
2023-08-16T09:49:16.987Z,9.03
2023-08-16T09:54:19.051Z,7.63
2023-08-16T10:01:54.047Z,7.82
2023-08-16T10:04:59.391Z,6.70
2023-08-16T10:07:13.036Z,7.65
2023-08-16T10:09:43.227Z,7.38
2023-08-16T10:12:10.919Z,7.90
2023-08-16T10:14:39.308Z,8.73
2023-08-16T10:17:10.888Z,7.43
2023-08-16T10:19:44.716Z,22.38
2023-08-16T10:22:34.530Z,6.53
2023-08-16T10:25:13.456Z,6.90
2023-08-16T10:27:45.012Z,6.82
2023-08-16T10:30:33.114Z,6.85
2023-08-16T10:33:06.594Z,6.53
2023-08-16T10:35:36.078Z,6.63
2023-08-16T10:38:03.229Z,7.13
2023-08-16T10:43:05.898Z,12.75
2023-08-16T10:48:19.921Z,7.15
2023-08-16T10:50:59.526Z,11.45
2023-08-16T10:53:27.113Z,7.38
2023-08-16T10:55:56.558Z,6.68
2023-08-16T10:58:24.613Z,6.60
2023-08-16T11:00:59.976Z,6.53
2023-08-16T11:03:34.702Z,8.40
2023-08-16T11:06:08.476Z,7.28
2023-08-16T11:08:35.657Z,8.05
2023-08-16T11:11:03.655Z,7.50
2023-08-16T11:13:30.760Z,7.07
2023-08-16T11:15:57.992Z,10.30
2023-08-16T11:18:35.892Z,7.38
2023-08-16T11:21:05.153Z,7.55
2023-08-16T11:23:37.581Z,6.75
2023-08-16T11:26:06.155Z,6.60
2023-08-16T11:28:34.125Z,6.07
2023-08-16T11:31:06.210Z,5.95
2023-08-16T11:33:33.783Z,7.82
2023-08-16T11:36:02.198Z,6.97
2023-08-16T11:38:29.738Z,6.10
2023-08-16T11:40:57.432Z,5.78
2023-08-16T11:43:32.470Z,5.93
2023-08-16T11:46:01.021Z,6.40
2023-08-16T11:48:30.800Z,6.20
2023-08-16T11:50:58.685Z,7.75
2023-08-16T11:53:36.673Z,6.55
2023-08-16T11:56:10.889Z,6.07
2023-08-16T11:58:48.496Z,5.80
2023-08-16T12:01:16.903Z,6.50
2023-08-16T12:03:45.074Z,6.18
2023-08-16T12:06:12.609Z,6.20
2023-08-16T12:08:50.661Z,6.72
2023-08-16T12:11:34.593Z,6.10
2023-08-16T12:14:05.807Z,6.20
2023-08-16T12:16:34.832Z,6.85
2023-08-16T12:19:02.050Z,6.53
2023-08-16T12:21:29.071Z,7.68
2023-08-16T12:23:56.802Z,8.73
2023-08-16T12:26:23.814Z,6.45
2023-08-16T12:28:50.912Z,6.32
2023-08-16T12:31:17.998Z,6.38
2023-08-16T12:33:46.545Z,6.13
2023-08-16T12:36:14.255Z,6.90
2023-08-16T12:38:41.873Z,5.95
2023-08-16T12:41:08.949Z,5.70
2023-08-16T12:43:39.604Z,6.60
2023-08-16T12:46:09.312Z,8.43
2023-08-16T12:48:37.249Z,6.85
2023-08-16T12:51:05.105Z,6.65
2023-08-16T12:53:33.024Z,6.53
2023-08-16T12:56:05.940Z,6.80
2023-08-16T12:58:34.684Z,6.97
2023-08-16T13:03:33.889Z,5.95
2023-08-16T13:08:33.279Z,6.72
2023-08-16T13:11:09.689Z,7.18
2023-08-16T13:13:39.033Z,6.88
2023-08-16T13:16:09.745Z,5.82
2023-08-16T13:23:53.396Z,6.22
2023-08-16T13:26:35.407Z,6.30
2023-08-16T13:29:11.686Z,6.03
2023-08-16T13:42:03.876Z,6.85
2023-08-16T13:47:01.802Z,6.25
2023-08-16T13:49:28.834Z,6.13
2023-08-16T13:51:55.811Z,6.57
2023-08-16T13:54:22.707Z,5.47
2023-08-16T13:56:49.738Z,6.80
2023-08-16T13:59:17.190Z,9.18
2023-08-16T14:01:44.729Z,6.18
2023-08-16T14:04:12.011Z,5.80
2023-08-16T14:06:39.620Z,6.20
2023-08-16T14:09:06.604Z,7.70
2023-08-16T14:11:33.600Z,6.60
2023-08-16T14:14:00.553Z,6.50
2023-08-16T14:16:27.686Z,5.82
2023-08-16T14:18:57.480Z,6.70
2023-08-16T14:21:24.551Z,5.88
2023-08-16T14:23:55.887Z,6.13
2023-08-16T14:26:23.602Z,9.20
2023-08-16T14:28:50.718Z,6.22
2023-08-16T14:31:17.688Z,8.55
2023-08-16T14:33:44.640Z,6.32
2023-08-16T14:36:11.588Z,6.35
2023-08-16T14:38:50.141Z,7.03
2023-08-16T14:41:21.450Z,6.60
2023-08-16T14:43:48.452Z,5.78
2023-08-16T14:46:16.817Z,8.27
2023-08-16T14:48:43.936Z,9.50
2023-08-16T14:51:11.477Z,5.97
2023-08-16T14:53:38.529Z,5.97
2023-08-16T14:56:05.624Z,8.65
2023-08-16T14:58:32.595Z,6.28
2023-08-16T15:00:59.497Z,6.35
2023-08-16T15:03:26.578Z,5.93
2023-08-16T15:05:53.541Z,8.20
2023-08-16T15:08:20.485Z,7.57
2023-08-16T15:10:49.619Z,6.70
2023-08-16T15:13:16.744Z,6.13
2023-08-16T15:15:43.656Z,5.83
2023-08-16T15:18:10.841Z,5.80
2023-08-16T15:20:37.777Z,5.60
2023-08-16T15:23:04.985Z,6.05
2023-08-16T15:25:31.913Z,7.87
2023-08-16T15:27:59.071Z,8.37
2023-08-16T15:30:26.133Z,6.35
2023-08-16T15:32:53.283Z,5.73
2023-08-16T15:35:20.382Z,8.73
2023-08-16T15:37:47.275Z,5.83
2023-08-16T15:40:14.268Z,5.33
2023-08-16T15:42:42.152Z,6.60
2023-08-16T15:45:09.511Z,6.40
2023-08-16T15:47:36.471Z,5.97
2023-08-16T15:50:03.648Z,5.30
2023-08-16T15:52:30.950Z,6.10
2023-08-16T15:54:58.038Z,6.15
2023-08-16T15:57:25.205Z,6.23
2023-08-16T15:59:52.273Z,6.07
2023-08-16T16:02:19.357Z,5.90
2023-08-16T16:04:47.905Z,5.27
2023-08-16T16:07:16.259Z,7.97
2023-08-16T16:09:43.302Z,6.70
2023-08-16T16:12:10.199Z,6.20
2023-08-16T16:14:37.196Z,6.00
2023-08-16T16:17:25.786Z,5.83
2023-08-16T16:19:53.200Z,6.83
2023-08-16T16:22:20.197Z,6.30
2023-08-16T16:24:47.551Z,5.50
2023-08-16T16:27:14.628Z,5.60
2023-08-16T16:29:41.594Z,5.33
2023-08-16T16:32:08.567Z,7.07
2023-08-16T16:34:35.735Z,5.47
2023-08-16T16:37:02.745Z,8.43
2023-08-16T16:39:29.651Z,5.10
2023-08-16T16:41:57.998Z,8.00
2023-08-16T16:44:26.744Z,6.10
2023-08-16T16:46:53.748Z,7.47
2023-08-16T16:49:20.702Z,8.90
2023-08-16T16:51:47.757Z,5.93
2023-08-16T16:54:14.681Z,10.70
2023-08-16T16:56:41.706Z,6.07
2023-08-16T16:59:08.685Z,5.80
2023-08-16T17:01:36.045Z,6.73
2023-08-16T17:04:03.227Z,7.47
2023-08-16T17:06:30.216Z,5.70
2023-08-16T17:08:57.239Z,6.57
2023-08-16T17:11:25.142Z,8.90
2023-08-16T17:13:53.104Z,8.30
2023-08-16T17:16:21.146Z,8.20
2023-08-16T17:18:48.203Z,9.23
2023-08-16T17:21:18.157Z,6.97
2023-08-16T17:23:46.391Z,6.53
2023-08-16T17:26:14.182Z,10.50
2023-08-16T17:28:41.618Z,5.97
2023-08-16T17:31:11.638Z,6.47
2023-08-16T17:33:39.418Z,5.97
2023-08-16T17:36:13.765Z,7.53
2023-08-16T17:38:42.534Z,6.37
2023-08-16T17:41:11.934Z,5.83
2023-08-16T17:43:40.997Z,6.53
2023-08-16T17:46:08.053Z,5.90
2023-08-16T17:48:35.352Z,6.57
2023-08-16T17:51:02.385Z,8.17
2023-08-16T17:53:29.755Z,7.90
2023-08-16T17:55:57.463Z,15.20
2023-08-16T17:58:25.001Z,12.03
2023-08-16T18:00:57.963Z,6.47
2023-08-16T18:03:24.975Z,6.50
2023-08-16T18:05:51.931Z,5.83
2023-08-16T18:08:18.911Z,6.13
2023-08-16T18:10:45.893Z,6.57
2023-08-16T18:13:13.084Z,12.17
2023-08-16T18:15:40.060Z,8.37
2023-08-16T18:18:07.309Z,6.73
2023-08-16T18:20:34.444Z,10.53
2023-08-16T18:23:02.290Z,13.37
2023-08-16T18:25:31.025Z,6.30
2023-08-16T18:28:01.162Z,12.33
2023-08-16T18:30:29.115Z,8.33
2023-08-16T18:32:57.175Z,7.07
2023-08-16T18:35:25.055Z,7.90
2023-08-16T18:37:52.005Z,6.20
2023-08-16T18:40:18.995Z,11.27
2023-08-16T18:42:47.563Z,5.77
2023-08-16T18:45:14.647Z,7.23
2023-08-16T18:47:41.814Z,8.13
2023-08-16T18:50:09.194Z,6.77
2023-08-16T18:52:36.251Z,7.20
2023-08-16T18:55:03.326Z,6.47
2023-08-16T18:57:30.347Z,7.23
2023-08-16T18:59:57.324Z,5.80
2023-08-16T19:02:24.290Z,8.83
2023-08-16T19:04:51.353Z,10.33
2023-08-16T19:07:18.408Z,6.40
2023-08-16T19:09:45.487Z,6.10
2023-08-16T19:12:12.538Z,6.13
2023-08-16T19:14:39.527Z,8.83
2023-08-16T19:17:06.581Z,5.47
2023-08-16T19:19:33.591Z,6.37
2023-08-16T19:22:00.517Z,6.30
2023-08-16T19:24:27.538Z,5.97
2023-08-16T19:26:54.420Z,7.70
2023-08-16T19:29:21.462Z,7.67
2023-08-16T19:31:48.422Z,5.70
2023-08-16T19:34:15.469Z,6.20
2023-08-16T19:36:44.146Z,7.63
2023-08-16T19:39:11.646Z,5.40
2023-08-16T19:41:38.564Z,6.17
2023-08-16T19:44:05.794Z,5.93
2023-08-16T19:46:32.787Z,7.63
2023-08-16T19:48:59.830Z,9.23
2023-08-16T19:51:27.738Z,6.77
2023-08-16T19:53:55.065Z,6.17
2023-08-16T19:56:22.034Z,7.93
2023-08-16T19:58:48.966Z,8.13
2023-08-16T20:01:16.032Z,7.03
2023-08-16T20:03:43.276Z,10.30
2023-08-16T20:06:10.295Z,9.47
2023-08-16T20:08:37.222Z,11.40
2023-08-16T20:11:04.287Z,7.83
2023-08-16T20:13:31.231Z,5.73
2023-08-16T20:15:58.196Z,6.17
2023-08-16T20:18:25.144Z,5.50
2023-08-16T20:20:52.248Z,7.60
2023-08-16T20:23:19.173Z,10.17
2023-08-16T20:25:46.255Z,6.87
2023-08-16T20:28:13.189Z,7.80
2023-08-16T20:30:40.159Z,7.23
2023-08-16T20:33:07.095Z,11.70
2023-08-16T20:35:34.084Z,6.77
2023-08-16T20:38:01.040Z,7.10
2023-08-16T20:40:28.048Z,7.27
2023-08-16T20:42:54.944Z,7.70
2023-08-16T20:45:22.200Z,6.93
2023-08-16T20:47:49.178Z,7.80
2023-08-16T20:50:16.323Z,6.90
2023-08-16T20:52:44.268Z,10.50
2023-08-16T20:55:11.746Z,8.17
2023-08-16T20:57:39.173Z,8.77
2023-08-16T21:00:07.068Z,6.80
2023-08-16T21:02:34.235Z,11.80
2023-08-16T21:05:01.399Z,8.73
2023-08-16T21:07:28.527Z,9.23
2023-08-16T21:09:55.591Z,10.53
2023-08-16T21:12:22.558Z,8.70
2023-08-16T21:14:49.900Z,8.40
2023-08-16T21:17:17.334Z,11.70
2023-08-16T21:19:44.278Z,9.73
2023-08-16T21:22:11.272Z,7.73
2023-08-16T21:24:38.324Z,8.27
2023-08-16T21:27:05.841Z,8.50
2023-08-16T21:29:34.255Z,9.07
2023-08-16T21:32:01.385Z,12.43
2023-08-16T21:34:28.365Z,9.73
2023-08-16T21:36:55.721Z,8.17
2023-08-16T21:39:23.004Z,8.20
2023-08-16T21:41:50.125Z,9.73
2023-08-16T21:44:19.816Z,10.20
2023-08-16T21:46:47.337Z,8.70
2023-08-16T21:49:15.682Z,8.93
2023-08-16T21:51:43.412Z,14.53
2023-08-16T21:54:10.659Z,9.03
2023-08-16T21:56:37.748Z,10.13
2023-08-16T21:59:04.973Z,14.57
2023-08-16T22:01:32.091Z,8.33
2023-08-16T22:03:59.305Z,11.60
2023-08-16T22:06:26.325Z,9.87
2023-08-16T22:08:53.287Z,9.53
2023-08-16T22:11:20.928Z,9.63
2023-08-16T22:13:48.066Z,11.77
2023-08-16T22:16:15.232Z,8.57
2023-08-16T22:18:44.179Z,9.03
2023-08-16T22:21:11.414Z,8.90
2023-08-16T22:23:38.598Z,10.43
2023-08-16T22:26:07.733Z,15.50
2023-08-16T22:28:35.416Z,11.23
2023-08-16T22:31:02.612Z,10.87
2023-08-16T22:33:29.658Z,14.03
2023-08-16T22:35:56.678Z,10.07
2023-08-16T22:38:24.299Z,9.67
2023-08-16T22:40:51.310Z,13.30
2023-08-16T22:43:18.264Z,10.67
2023-08-16T22:45:45.243Z,12.77
2023-08-16T22:48:12.179Z,10.50
2023-08-16T22:50:39.242Z,12.77
2023-08-16T22:53:07.020Z,14.30
2023-08-16T22:55:34.088Z,15.27
2023-08-16T22:58:01.054Z,9.70
2023-08-16T23:00:28.035Z,16.27
2023-08-16T23:02:55.043Z,8.80
2023-08-16T23:05:22.057Z,13.63
2023-08-16T23:07:48.975Z,11.37
2023-08-16T23:10:16.078Z,11.03
2023-08-16T23:12:43.197Z,10.33
2023-08-16T23:15:10.749Z,10.80
2023-08-16T23:17:37.783Z,10.27
2023-08-16T23:20:07.275Z,8.90
2023-08-16T23:22:38.772Z,9.37
2023-08-16T23:25:10.372Z,10.33
2023-08-16T23:27:38.579Z,10.87
2023-08-16T23:30:09.291Z,11.30
2023-08-16T23:32:36.332Z,11.83
2023-08-16T23:35:04.362Z,12.53
2023-08-16T23:37:31.877Z,13.13
2023-08-16T23:39:59.012Z,11.27
2023-08-16T23:42:25.961Z,12.27
2023-08-16T23:44:53.088Z,13.00
2023-08-16T23:47:20.230Z,10.47
2023-08-16T23:49:47.549Z,11.57
2023-08-16T23:52:14.470Z,11.63
2023-08-16T23:54:41.482Z,9.67
2023-08-16T23:57:08.432Z,12.10
2023-08-16T23:59:35.618Z,11.37
